sensor_id;sensor_type;location;lat;lon;timestamp;temperature;humidity
75899;DHT22;64576;50.460;4.866;2023-06-10T00:01:47;18.94;65.80
75899;DHT22;64576;50.460;4.866;2023-06-10T00:04:14;18.79;66.18
75899;DHT22;64576;50.460;4.866;2023-06-10T00:06:40;18.67;66.29
75899;DHT22;64576;50.460;4.866;2023-06-10T00:09:06;18.53;66.59
75899;DHT22;64576;50.460;4.866;2023-06-10T00:11:39;18.34;67.39
75899;DHT22;64576;50.460;4.866;2023-06-10T00:14:04;18.11;67.73
75899;DHT22;64576;50.460;4.866;2023-06-10T00:16:30;17.98;68.10
75899;DHT22;64576;50.460;4.866;2023-06-10T00:18:55;17.79;68.71
75899;DHT22;64576;50.460;4.866;2023-06-10T00:21:21;17.67;68.70
75899;DHT22;64576;50.460;4.866;2023-06-10T00:23:47;17.67;69.02
75899;DHT22;64576;50.460;4.866;2023-06-10T00:26:13;17.62;69.18
75899;DHT22;64576;50.460;4.866;2023-06-10T00:28:38;17.70;68.85
75899;DHT22;64576;50.460;4.866;2023-06-10T00:31:03;17.98;67.99
75899;DHT22;64576;50.460;4.866;2023-06-10T00:33:30;17.97;68.11
75899;DHT22;64576;50.460;4.866;2023-06-10T00:35:56;18.28;67.32
75899;DHT22;64576;50.460;4.866;2023-06-10T00:38:21;18.29;66.86
75899;DHT22;64576;50.460;4.866;2023-06-10T00:40:46;18.42;66.99
75899;DHT22;64576;50.460;4.866;2023-06-10T00:43:13;18.41;66.96
75899;DHT22;64576;50.460;4.866;2023-06-10T00:45:38;18.48;67.00
75899;DHT22;64576;50.460;4.866;2023-06-10T00:48:04;18.35;67.37
75899;DHT22;64576;50.460;4.866;2023-06-10T00:50:30;18.45;67.05
75899;DHT22;64576;50.460;4.866;2023-06-10T00:52:56;18.42;67.14
75899;DHT22;64576;50.460;4.866;2023-06-10T00:55:22;18.19;67.74
75899;DHT22;64576;50.460;4.866;2023-06-10T00:57:49;18.08;68.31
75899;DHT22;64576;50.460;4.866;2023-06-10T01:00:15;17.91;68.85
75899;DHT22;64576;50.460;4.866;2023-06-10T01:02:41;18.02;68.76
75899;DHT22;64576;50.460;4.866;2023-06-10T01:05:08;18.12;68.58
75899;DHT22;64576;50.460;4.866;2023-06-10T01:07:56;18.00;68.67
75899;DHT22;64576;50.460;4.866;2023-06-10T01:10:33;17.98;68.71
75899;DHT22;64576;50.460;4.866;2023-06-10T01:13:01;17.80;69.30
75899;DHT22;64576;50.460;4.866;2023-06-10T01:15:33;17.87;69.19
75899;DHT22;64576;50.460;4.866;2023-06-10T01:18:03;17.98;68.82
75899;DHT22;64576;50.460;4.866;2023-06-10T01:20:30;18.11;68.82
75899;DHT22;64576;50.460;4.866;2023-06-10T01:22:58;18.00;68.81
75899;DHT22;64576;50.460;4.866;2023-06-10T01:25:24;17.93;69.19
75899;DHT22;64576;50.460;4.866;2023-06-10T01:30:45;17.87;69.47
75899;DHT22;64576;50.460;4.866;2023-06-10T01:33:17;17.69;69.90
75899;DHT22;64576;50.460;4.866;2023-06-10T01:35:44;17.57;70.04
75899;DHT22;64576;50.460;4.866;2023-06-10T01:38:12;17.65;70.33
75899;DHT22;64576;50.460;4.866;2023-06-10T01:40:40;17.55;70.44
75899;DHT22;64576;50.460;4.866;2023-06-10T01:43:05;17.49;70.83
75899;DHT22;64576;50.460;4.866;2023-06-10T01:45:31;17.40;70.81
75899;DHT22;64576;50.460;4.866;2023-06-10T01:47:56;17.31;71.51
75899;DHT22;64576;50.460;4.866;2023-06-10T01:50:21;17.22;71.65
75899;DHT22;64576;50.460;4.866;2023-06-10T01:52:47;17.26;71.72
75899;DHT22;64576;50.460;4.866;2023-06-10T01:55:12;17.22;71.58
75899;DHT22;64576;50.460;4.866;2023-06-10T01:57:38;17.24;71.69
75899;DHT22;64576;50.460;4.866;2023-06-10T02:00:03;17.17;71.70
75899;DHT22;64576;50.460;4.866;2023-06-10T02:02:29;17.22;71.67
75899;DHT22;64576;50.460;4.866;2023-06-10T02:04:54;17.19;72.48
75899;DHT22;64576;50.460;4.866;2023-06-10T02:07:20;17.22;72.05
75899;DHT22;64576;50.460;4.866;2023-06-10T02:09:45;17.39;71.15
75899;DHT22;64576;50.460;4.866;2023-06-10T02:12:11;17.43;70.35
75899;DHT22;64576;50.460;4.866;2023-06-10T02:14:36;17.53;70.11
75899;DHT22;64576;50.460;4.866;2023-06-10T02:17:02;17.50;70.52
75899;DHT22;64576;50.460;4.866;2023-06-10T02:19:27;17.52;70.55
75899;DHT22;64576;50.460;4.866;2023-06-10T02:21:53;17.42;70.94
75899;DHT22;64576;50.460;4.866;2023-06-10T02:24:18;17.53;70.58
75899;DHT22;64576;50.460;4.866;2023-06-10T02:26:44;17.50;70.59
75899;DHT22;64576;50.460;4.866;2023-06-10T02:29:10;17.47;70.80
75899;DHT22;64576;50.460;4.866;2023-06-10T02:31:36;17.34;71.25
75899;DHT22;64576;50.460;4.866;2023-06-10T02:34:02;17.17;71.52
75899;DHT22;64576;50.460;4.866;2023-06-10T02:36:29;17.18;71.40
75899;DHT22;64576;50.460;4.866;2023-06-10T02:38:54;17.07;71.83
75899;DHT22;64576;50.460;4.866;2023-06-10T02:41:19;16.95;72.06
75899;DHT22;64576;50.460;4.866;2023-06-10T02:43:47;17.26;71.34
75899;DHT22;64576;50.460;4.866;2023-06-10T02:46:12;17.14;71.70
75899;DHT22;64576;50.460;4.866;2023-06-10T02:48:42;17.07;71.71
75899;DHT22;64576;50.460;4.866;2023-06-10T02:51:08;17.12;71.51
75899;DHT22;64576;50.460;4.866;2023-06-10T02:53:33;16.95;72.16
75899;DHT22;64576;50.460;4.866;2023-06-10T02:55:59;16.94;72.15
75899;DHT22;64576;50.460;4.866;2023-06-10T02:58:24;17.01;71.83
75899;DHT22;64576;50.460;4.866;2023-06-10T03:00:51;16.92;72.19
75899;DHT22;64576;50.460;4.866;2023-06-10T03:03:16;16.87;72.41
75899;DHT22;64576;50.460;4.866;2023-06-10T03:05:42;16.87;72.22
75899;DHT22;64576;50.460;4.866;2023-06-10T03:08:07;16.97;72.25
75899;DHT22;64576;50.460;4.866;2023-06-10T03:10:32;17.01;72.32
75899;DHT22;64576;50.460;4.866;2023-06-10T03:12:58;16.97;72.01
75899;DHT22;64576;50.460;4.866;2023-06-10T03:15:23;16.83;72.67
75899;DHT22;64576;50.460;4.866;2023-06-10T03:17:49;16.74;72.64
75899;DHT22;64576;50.460;4.866;2023-06-10T03:20:15;16.67;72.81
75899;DHT22;64576;50.460;4.866;2023-06-10T03:22:42;16.64;73.06
75899;DHT22;64576;50.460;4.866;2023-06-10T03:25:08;16.69;73.18
75899;DHT22;64576;50.460;4.866;2023-06-10T03:27:39;16.45;73.43
75899;DHT22;64576;50.460;4.866;2023-06-10T03:30:05;16.45;73.36
75899;DHT22;64576;50.460;4.866;2023-06-10T03:32:31;16.48;73.38
75899;DHT22;64576;50.460;4.866;2023-06-10T03:34:56;16.49;73.34
75899;DHT22;64576;50.460;4.866;2023-06-10T03:37:22;16.56;73.09
75899;DHT22;64576;50.460;4.866;2023-06-10T03:39:47;16.67;72.76
75899;DHT22;64576;50.460;4.866;2023-06-10T03:42:12;16.71;72.70
75899;DHT22;64576;50.460;4.866;2023-06-10T03:44:38;16.84;72.44
75899;DHT22;64576;50.460;4.866;2023-06-10T03:47:03;16.98;72.00
75899;DHT22;64576;50.460;4.866;2023-06-10T03:49:29;17.05;71.59
75899;DHT22;64576;50.460;4.866;2023-06-10T03:51:54;17.24;71.28
75899;DHT22;64576;50.460;4.866;2023-06-10T03:54:20;17.36;70.80
75899;DHT22;64576;50.460;4.866;2023-06-10T03:56:46;17.36;70.95
75899;DHT22;64576;50.460;4.866;2023-06-10T03:59:13;17.26;71.14
75899;DHT22;64576;50.460;4.866;2023-06-10T04:01:38;17.04;71.89
75899;DHT22;64576;50.460;4.866;2023-06-10T04:04:06;17.17;71.51
75899;DHT22;64576;50.460;4.866;2023-06-10T04:06:31;17.47;70.59
75899;DHT22;64576;50.460;4.866;2023-06-10T04:08:57;17.77;69.90
75899;DHT22;64576;50.460;4.866;2023-06-10T04:11:24;17.98;69.40
75899;DHT22;64576;50.460;4.866;2023-06-10T04:13:49;18.28;68.73
75899;DHT22;64576;50.460;4.866;2023-06-10T04:16:15;18.41;68.32
75899;DHT22;64576;50.460;4.866;2023-06-10T04:18:41;18.67;67.63
75899;DHT22;64576;50.460;4.866;2023-06-10T04:21:07;18.99;67.01
75899;DHT22;64576;50.460;4.866;2023-06-10T04:23:34;19.12;66.36
75899;DHT22;64576;50.460;4.866;2023-06-10T04:25:59;19.24;66.17
75899;DHT22;64576;50.460;4.866;2023-06-10T04:28:25;19.39;65.66
75899;DHT22;64576;50.460;4.866;2023-06-10T04:30:50;19.54;65.42
75899;DHT22;64576;50.460;4.866;2023-06-10T04:33:15;19.86;64.32
75899;DHT22;64576;50.460;4.866;2023-06-10T04:35:41;19.85;64.26
75899;DHT22;64576;50.460;4.866;2023-06-10T04:38:07;20.06;63.87
75899;DHT22;64576;50.460;4.866;2023-06-10T04:40:33;20.09;63.73
75899;DHT22;64576;50.460;4.866;2023-06-10T04:42:58;20.28;63.33
75899;DHT22;64576;50.460;4.866;2023-06-10T04:45:23;20.32;63.13
75899;DHT22;64576;50.460;4.866;2023-06-10T04:47:49;20.55;62.56
75899;DHT22;64576;50.460;4.866;2023-06-10T04:50:14;20.92;61.71
75899;DHT22;64576;50.460;4.866;2023-06-10T04:52:40;21.07;61.43
75899;DHT22;64576;50.460;4.866;2023-06-10T04:55:10;21.10;61.20
75899;DHT22;64576;50.460;4.866;2023-06-10T04:57:36;21.33;60.52
75899;DHT22;64576;50.460;4.866;2023-06-10T05:00:01;21.48;60.39
75899;DHT22;64576;50.460;4.866;2023-06-10T05:02:30;21.92;59.71
75899;DHT22;64576;50.460;4.866;2023-06-10T05:04:56;21.93;60.30
75899;DHT22;64576;50.460;4.866;2023-06-10T05:07:23;21.95;60.60
75899;DHT22;64576;50.460;4.866;2023-06-10T05:09:48;22.17;60.24
75899;DHT22;64576;50.460;4.866;2023-06-10T05:12:13;22.55;59.13
75899;DHT22;64576;50.460;4.866;2023-06-10T05:14:39;22.82;58.28
75899;DHT22;64576;50.460;4.866;2023-06-10T05:17:05;22.36;57.89
75899;DHT22;64576;50.460;4.866;2023-06-10T05:19:31;22.40;57.92
75899;DHT22;64576;50.460;4.866;2023-06-10T05:21:57;22.36;57.81
75899;DHT22;64576;50.460;4.866;2023-06-10T05:24:23;22.48;57.43
75899;DHT22;64576;50.460;4.866;2023-06-10T05:26:48;22.54;57.31
75899;DHT22;64576;50.460;4.866;2023-06-10T05:29:14;22.68;56.98
75899;DHT22;64576;50.460;4.866;2023-06-10T05:31:41;22.32;57.93
75899;DHT22;64576;50.460;4.866;2023-06-10T05:34:06;22.44;57.52
75899;DHT22;64576;50.460;4.866;2023-06-10T05:36:31;22.21;57.90
75899;DHT22;64576;50.460;4.866;2023-06-10T05:38:57;22.58;57.79
75899;DHT22;64576;50.460;4.866;2023-06-10T05:41:23;22.69;57.54
75899;DHT22;64576;50.460;4.866;2023-06-10T05:43:48;22.94;56.79
75899;DHT22;64576;50.460;4.866;2023-06-10T05:46:14;22.88;56.85
75899;DHT22;64576;50.460;4.866;2023-06-10T05:48:39;23.06;56.86
75899;DHT22;64576;50.460;4.866;2023-06-10T05:51:05;23.50;56.20
75899;DHT22;64576;50.460;4.866;2023-06-10T05:53:31;23.44;55.45
75899;DHT22;64576;50.460;4.866;2023-06-10T05:55:57;23.88;54.73
75899;DHT22;64576;50.460;4.866;2023-06-10T05:58:23;23.70;54.93
75899;DHT22;64576;50.460;4.866;2023-06-10T06:00:49;24.02;54.22
75899;DHT22;64576;50.460;4.866;2023-06-10T06:03:15;24.05;53.89
75899;DHT22;64576;50.460;4.866;2023-06-10T06:05:40;24.25;54.52
75899;DHT22;64576;50.460;4.866;2023-06-10T06:08:09;24.47;54.12
75899;DHT22;64576;50.460;4.866;2023-06-10T06:10:34;24.35;53.89
75899;DHT22;64576;50.460;4.866;2023-06-10T06:13:00;24.71;53.25
75899;DHT22;64576;50.460;4.866;2023-06-10T06:15:26;24.84;53.56
75899;DHT22;64576;50.460;4.866;2023-06-10T06:17:51;24.63;53.93
75899;DHT22;64576;50.460;4.866;2023-06-10T06:20:22;25.05;53.43
75899;DHT22;64576;50.460;4.866;2023-06-10T06:22:47;24.87;53.19
75899;DHT22;64576;50.460;4.866;2023-06-10T06:25:13;25.43;52.83
75899;DHT22;64576;50.460;4.866;2023-06-10T06:27:38;25.67;51.90
75899;DHT22;64576;50.460;4.866;2023-06-10T06:30:04;25.74;52.08
75899;DHT22;64576;50.460;4.866;2023-06-10T06:32:30;26.00;52.14
75899;DHT22;64576;50.460;4.866;2023-06-10T06:34:55;26.31;51.79
75899;DHT22;64576;50.460;4.866;2023-06-10T06:37:22;26.22;51.07
75899;DHT22;64576;50.460;4.866;2023-06-10T06:39:50;26.63;50.97
75899;DHT22;64576;50.460;4.866;2023-06-10T06:42:15;26.15;51.80
75899;DHT22;64576;50.460;4.866;2023-06-10T06:44:41;26.64;51.61
75899;DHT22;64576;50.460;4.866;2023-06-10T06:47:07;26.32;52.28
75899;DHT22;64576;50.460;4.866;2023-06-10T06:49:32;26.83;51.09
75899;DHT22;64576;50.460;4.866;2023-06-10T06:51:58;26.87;50.70
75899;DHT22;64576;50.460;4.866;2023-06-10T06:54:23;26.94;51.11
75899;DHT22;64576;50.460;4.866;2023-06-10T06:56:48;27.39;49.34
75899;DHT22;64576;50.460;4.866;2023-06-10T06:59:14;27.30;50.01
75899;DHT22;64576;50.460;4.866;2023-06-10T07:01:39;28.18;48.38
75899;DHT22;64576;50.460;4.866;2023-06-10T07:04:05;27.94;48.13
75899;DHT22;64576;50.460;4.866;2023-06-10T07:06:30;28.29;47.76
75899;DHT22;64576;50.460;4.866;2023-06-10T07:08:56;27.58;49.11
75899;DHT22;64576;50.460;4.866;2023-06-10T07:11:23;28.44;48.27
75899;DHT22;64576;50.460;4.866;2023-06-10T07:13:48;29.65;46.10
75899;DHT22;64576;50.460;4.866;2023-06-10T07:16:13;30.14;44.96
75899;DHT22;64576;50.460;4.866;2023-06-10T07:18:39;31.06;43.47
75899;DHT22;64576;50.460;4.866;2023-06-10T07:21:05;30.51;43.90
75899;DHT22;64576;50.460;4.866;2023-06-10T07:23:30;30.47;44.23
75899;DHT22;64576;50.460;4.866;2023-06-10T07:25:55;30.23;43.85
75899;DHT22;64576;50.460;4.866;2023-06-10T07:28:21;29.14;44.07
75899;DHT22;64576;50.460;4.866;2023-06-10T07:30:46;29.65;43.82
75899;DHT22;64576;50.460;4.866;2023-06-10T07:33:11;29.98;43.44
75899;DHT22;64576;50.460;4.866;2023-06-10T07:35:37;29.75;44.20
75899;DHT22;64576;50.460;4.866;2023-06-10T07:38:02;30.23;41.88
75899;DHT22;64576;50.460;4.866;2023-06-10T07:40:28;30.13;42.51
75899;DHT22;64576;50.460;4.866;2023-06-10T07:42:54;30.00;42.52
75899;DHT22;64576;50.460;4.866;2023-06-10T07:45:20;30.27;40.93
75899;DHT22;64576;50.460;4.866;2023-06-10T07:47:45;31.08;40.75
75899;DHT22;64576;50.460;4.866;2023-06-10T07:50:11;30.61;41.00
75899;DHT22;64576;50.460;4.866;2023-06-10T07:52:36;30.47;41.10
75899;DHT22;64576;50.460;4.866;2023-06-10T07:55:02;31.89;39.33
75899;DHT22;64576;50.460;4.866;2023-06-10T07:57:27;30.58;40.07
75899;DHT22;64576;50.460;4.866;2023-06-10T07:59:53;31.49;39.99
75899;DHT22;64576;50.460;4.866;2023-06-10T08:02:20;32.76;38.51
75899;DHT22;64576;50.460;4.866;2023-06-10T08:04:45;32.66;38.57
75899;DHT22;64576;50.460;4.866;2023-06-10T08:07:10;32.26;37.15
75899;DHT22;64576;50.460;4.866;2023-06-10T08:09:37;32.40;37.33
75899;DHT22;64576;50.460;4.866;2023-06-10T08:12:03;32.29;37.03
75899;DHT22;64576;50.460;4.866;2023-06-10T08:14:28;31.92;37.37
75899;DHT22;64576;50.460;4.866;2023-06-10T08:16:53;32.16;36.06
75899;DHT22;64576;50.460;4.866;2023-06-10T08:19:19;31.96;37.39
75899;DHT22;64576;50.460;4.866;2023-06-10T08:21:44;31.85;37.17
75899;DHT22;64576;50.460;4.866;2023-06-10T08:24:10;31.34;37.20
75899;DHT22;64576;50.460;4.866;2023-06-10T08:26:35;32.16;36.61
75899;DHT22;64576;50.460;4.866;2023-06-10T08:29:01;31.91;36.98
75899;DHT22;64576;50.460;4.866;2023-06-10T08:31:26;30.96;37.49
75899;DHT22;64576;50.460;4.866;2023-06-10T08:33:52;31.95;36.00
75899;DHT22;64576;50.460;4.866;2023-06-10T08:36:17;31.44;36.18
75899;DHT22;64576;50.460;4.866;2023-06-10T08:38:42;30.89;37.31
75899;DHT22;64576;50.460;4.866;2023-06-10T08:41:09;31.12;37.68
75899;DHT22;64576;50.460;4.866;2023-06-10T08:44:10;31.50;36.48
75899;DHT22;64576;50.460;4.866;2023-06-10T08:46:38;32.44;35.31
75899;DHT22;64576;50.460;4.866;2023-06-10T08:49:05;32.64;35.27
75899;DHT22;64576;50.460;4.866;2023-06-10T08:51:34;33.72;34.34
75899;DHT22;64576;50.460;4.866;2023-06-10T08:54:17;34.00;34.51
75899;DHT22;64576;50.460;4.866;2023-06-10T08:56:49;34.65;33.48
75899;DHT22;64576;50.460;4.866;2023-06-10T08:59:15;35.24;32.86
75899;DHT22;64576;50.460;4.866;2023-06-10T09:01:44;33.85;33.55
75899;DHT22;64576;50.460;4.866;2023-06-10T09:04:10;33.55;33.72
75899;DHT22;64576;50.460;4.866;2023-06-10T09:06:37;33.94;34.13
75899;DHT22;64576;50.460;4.866;2023-06-10T09:09:05;34.28;33.31
75899;DHT22;64576;50.460;4.866;2023-06-10T09:11:31;34.25;33.47
75899;DHT22;64576;50.460;4.866;2023-06-10T09:13:57;34.48;32.96
75899;DHT22;64576;50.460;4.866;2023-06-10T09:16:23;34.93;32.68
75899;DHT22;64576;50.460;4.866;2023-06-10T09:18:49;33.49;33.50
75899;DHT22;64576;50.460;4.866;2023-06-10T09:21:22;33.66;33.32
75899;DHT22;64576;50.460;4.866;2023-06-10T09:23:48;33.39;33.74
75899;DHT22;64576;50.460;4.866;2023-06-10T09:26:13;32.86;33.93
75899;DHT22;64576;50.460;4.866;2023-06-10T09:28:39;32.39;33.88
75899;DHT22;64576;50.460;4.866;2023-06-10T09:31:07;32.12;34.78
75899;DHT22;64576;50.460;4.866;2023-06-10T09:33:37;32.64;34.00
75899;DHT22;64576;50.460;4.866;2023-06-10T09:36:03;32.91;34.84
75899;DHT22;64576;50.460;4.866;2023-06-10T09:38:33;34.08;32.10
75899;DHT22;64576;50.460;4.866;2023-06-10T09:40:58;34.23;32.00
75899;DHT22;64576;50.460;4.866;2023-06-10T09:43:42;34.14;32.31
75899;DHT22;64576;50.460;4.866;2023-06-10T09:46:18;33.93;32.01
75899;DHT22;64576;50.460;4.866;2023-06-10T09:48:45;34.62;32.12
75899;DHT22;64576;50.460;4.866;2023-06-10T09:51:11;35.18;30.56
75899;DHT22;64576;50.460;4.866;2023-06-10T09:53:37;34.96;30.14
75899;DHT22;64576;50.460;4.866;2023-06-10T09:56:02;34.70;30.83
75899;DHT22;64576;50.460;4.866;2023-06-10T09:58:35;33.70;32.13
75899;DHT22;64576;50.460;4.866;2023-06-10T10:01:11;34.49;31.37
75899;DHT22;64576;50.460;4.866;2023-06-10T10:03:46;33.66;32.52
75899;DHT22;64576;50.460;4.866;2023-06-10T10:06:13;35.57;31.31
75899;DHT22;64576;50.460;4.866;2023-06-10T10:08:39;34.56;31.21
75899;DHT22;64576;50.460;4.866;2023-06-10T10:11:04;34.97;31.23
75899;DHT22;64576;50.460;4.866;2023-06-10T10:13:33;36.57;29.71
75899;DHT22;64576;50.460;4.866;2023-06-10T10:16:03;36.37;29.85
75899;DHT22;64576;50.460;4.866;2023-06-10T10:18:29;33.65;31.80
75899;DHT22;64576;50.460;4.866;2023-06-10T10:20:58;34.11;32.13
75899;DHT22;64576;50.460;4.866;2023-06-10T10:23:31;35.14;30.62
75899;DHT22;64576;50.460;4.866;2023-06-10T10:25:57;35.48;30.53
75899;DHT22;64576;50.460;4.866;2023-06-10T10:28:29;36.10;28.96
75899;DHT22;64576;50.460;4.866;2023-06-10T10:31:03;35.23;30.05
75899;DHT22;64576;50.460;4.866;2023-06-10T10:34:02;33.17;29.98
75899;DHT22;64576;50.460;4.866;2023-06-10T10:36:27;34.11;29.92
75899;DHT22;64576;50.460;4.866;2023-06-10T10:38:53;34.80;28.39
75899;DHT22;64576;50.460;4.866;2023-06-10T10:41:19;36.26;27.95
75899;DHT22;64576;50.460;4.866;2023-06-10T10:43:46;36.34;27.93
75899;DHT22;64576;50.460;4.866;2023-06-10T10:46:14;34.89;27.50
75899;DHT22;64576;50.460;4.866;2023-06-10T10:48:40;35.00;27.12
75899;DHT22;64576;50.460;4.866;2023-06-10T10:51:10;34.93;27.40
75899;DHT22;64576;50.460;4.866;2023-06-10T10:53:39;34.49;28.01
75899;DHT22;64576;50.460;4.866;2023-06-10T10:56:13;36.09;27.18
75899;DHT22;64576;50.460;4.866;2023-06-10T10:58:39;34.41;28.08
75899;DHT22;64576;50.460;4.866;2023-06-10T11:01:14;33.38;29.66
75899;DHT22;64576;50.460;4.866;2023-06-10T11:03:43;32.92;29.87
75899;DHT22;64576;50.460;4.866;2023-06-10T11:06:14;34.29;28.39
75899;DHT22;64576;50.460;4.866;2023-06-10T11:11:26;34.56;27.01
75899;DHT22;64576;50.460;4.866;2023-06-10T11:14:07;34.68;27.00
75899;DHT22;64576;50.460;4.866;2023-06-10T11:16:41;37.02;26.08
75899;DHT22;64576;50.460;4.866;2023-06-10T11:19:07;36.72;27.51
75899;DHT22;64576;50.460;4.866;2023-06-10T11:21:45;37.16;25.89
75899;DHT22;64576;50.460;4.866;2023-06-10T11:24:22;36.63;26.61
75899;DHT22;64576;50.460;4.866;2023-06-10T11:26:48;37.49;25.79
75899;DHT22;64576;50.460;4.866;2023-06-10T11:29:14;36.82;25.69
75899;DHT22;64576;50.460;4.866;2023-06-10T11:31:46;37.76;26.10
75899;DHT22;64576;50.460;4.866;2023-06-10T11:34:14;37.47;26.53
75899;DHT22;64576;50.460;4.866;2023-06-10T11:36:43;36.41;27.16
75899;DHT22;64576;50.460;4.866;2023-06-10T11:39:11;37.49;26.19
75899;DHT22;64576;50.460;4.866;2023-06-10T11:41:37;38.02;24.53
75899;DHT22;64576;50.460;4.866;2023-06-10T11:44:08;36.48;25.59
75899;DHT22;64576;50.460;4.866;2023-06-10T11:46:35;36.58;26.62
75899;DHT22;64576;50.460;4.866;2023-06-10T11:49:01;33.86;29.87
75899;DHT22;64576;50.460;4.866;2023-06-10T11:51:38;33.11;30.37
75899;DHT22;64576;50.460;4.866;2023-06-10T11:54:04;33.96;29.83
75899;DHT22;64576;50.460;4.866;2023-06-10T11:56:31;34.11;29.80
75899;DHT22;64576;50.460;4.866;2023-06-10T11:59:02;32.81;30.43
75899;DHT22;64576;50.460;4.866;2023-06-10T12:01:30;36.20;27.60
75899;DHT22;64576;50.460;4.866;2023-06-10T12:03:57;34.76;27.76
75899;DHT22;64576;50.460;4.866;2023-06-10T12:06:23;33.43;29.73
75899;DHT22;64576;50.460;4.866;2023-06-10T12:08:48;34.11;28.97
75899;DHT22;64576;50.460;4.866;2023-06-10T12:11:13;36.17;27.03
75899;DHT22;64576;50.460;4.866;2023-06-10T12:13:48;36.60;26.15
75899;DHT22;64576;50.460;4.866;2023-06-10T12:16:14;37.52;25.99
75899;DHT22;64576;50.460;4.866;2023-06-10T12:18:41;38.91;24.94
75899;DHT22;64576;50.460;4.866;2023-06-10T12:21:17;35.65;26.62
75899;DHT22;64576;50.460;4.866;2023-06-10T12:26:41;34.97;30.47
75899;DHT22;64576;50.460;4.866;2023-06-10T12:29:20;35.10;30.44
75899;DHT22;64576;50.460;4.866;2023-06-10T12:32:04;33.46;33.65
75899;DHT22;64576;50.460;4.866;2023-06-10T12:34:36;35.03;32.48
75899;DHT22;64576;50.460;4.866;2023-06-10T12:37:03;33.97;33.74
75899;DHT22;64576;50.460;4.866;2023-06-10T12:39:30;35.57;32.18
75899;DHT22;64576;50.460;4.866;2023-06-10T12:41:57;33.92;33.39
75899;DHT22;64576;50.460;4.866;2023-06-10T12:44:33;32.55;35.78
75899;DHT22;64576;50.460;4.866;2023-06-10T12:47:00;33.73;33.28
75899;DHT22;64576;50.460;4.866;2023-06-10T12:49:26;32.88;34.27
75899;DHT22;64576;50.460;4.866;2023-06-10T12:51:52;34.13;32.17
75899;DHT22;64576;50.460;4.866;2023-06-10T12:54:18;33.17;32.16
75899;DHT22;64576;50.460;4.866;2023-06-10T12:56:44;34.05;31.43
75899;DHT22;64576;50.460;4.866;2023-06-10T12:59:09;35.69;29.81
75899;DHT22;64576;50.460;4.866;2023-06-10T13:01:36;35.47;30.22
75899;DHT22;64576;50.460;4.866;2023-06-10T13:04:04;34.56;31.50
75899;DHT22;64576;50.460;4.866;2023-06-10T13:06:30;33.22;32.53
75899;DHT22;64576;50.460;4.866;2023-06-10T13:08:57;33.33;32.15
75899;DHT22;64576;50.460;4.866;2023-06-10T13:11:22;32.02;33.67
75899;DHT22;64576;50.460;4.866;2023-06-10T13:13:50;31.99;34.08
75899;DHT22;64576;50.460;4.866;2023-06-10T13:16:16;31.46;34.95
75899;DHT22;64576;50.460;4.866;2023-06-10T13:18:41;33.53;33.13
75899;DHT22;64576;50.460;4.866;2023-06-10T13:21:06;35.50;30.25
75899;DHT22;64576;50.460;4.866;2023-06-10T13:23:32;33.53;30.52
75899;DHT22;64576;50.460;4.866;2023-06-10T13:25:57;33.89;31.01
75899;DHT22;64576;50.460;4.866;2023-06-10T13:28:23;32.55;32.59
75899;DHT22;64576;50.460;4.866;2023-06-10T13:30:49;32.26;33.31
75899;DHT22;64576;50.460;4.866;2023-06-10T13:33:15;34.07;30.49
75899;DHT22;64576;50.460;4.866;2023-06-10T13:35:40;34.65;28.09
75899;DHT22;64576;50.460;4.866;2023-06-10T13:38:06;35.18;27.63
75899;DHT22;64576;50.460;4.866;2023-06-10T13:40:32;35.20;27.38
75899;DHT22;64576;50.460;4.866;2023-06-10T13:42:58;36.02;26.70
75899;DHT22;64576;50.460;4.866;2023-06-10T13:45:23;35.98;26.51
75899;DHT22;64576;50.460;4.866;2023-06-10T13:47:49;34.23;27.66
75899;DHT22;64576;50.460;4.866;2023-06-10T13:50:15;34.14;28.04
75899;DHT22;64576;50.460;4.866;2023-06-10T13:52:40;33.69;28.75
75899;DHT22;64576;50.460;4.866;2023-06-10T13:55:06;34.44;27.93
75899;DHT22;64576;50.460;4.866;2023-06-10T13:57:31;36.00;27.00
75899;DHT22;64576;50.460;4.866;2023-06-10T13:59:57;35.79;27.06
75899;DHT22;64576;50.460;4.866;2023-06-10T14:02:23;34.23;29.17
75899;DHT22;64576;50.460;4.866;2023-06-10T14:04:48;33.96;29.18
75899;DHT22;64576;50.460;4.866;2023-06-10T14:07:14;33.33;30.38
75899;DHT22;64576;50.460;4.866;2023-06-10T14:09:40;33.72;29.75
75899;DHT22;64576;50.460;4.866;2023-06-10T14:12:06;33.12;30.07
75899;DHT22;64576;50.460;4.866;2023-06-10T14:14:31;32.73;30.79
75899;DHT22;64576;50.460;4.866;2023-06-10T14:16:58;33.36;29.51
75899;DHT22;64576;50.460;4.866;2023-06-10T14:19:23;34.87;28.08
75899;DHT22;64576;50.460;4.866;2023-06-10T14:21:49;34.87;28.05
75899;DHT22;64576;50.460;4.866;2023-06-10T14:24:14;35.54;28.03
75899;DHT22;64576;50.460;4.866;2023-06-10T14:26:40;35.75;27.55
75899;DHT22;64576;50.460;4.866;2023-06-10T14:29:05;35.21;28.45
75899;DHT22;64576;50.460;4.866;2023-06-10T14:31:32;33.83;30.01
75899;DHT22;64576;50.460;4.866;2023-06-10T14:33:58;33.21;30.56
75899;DHT22;64576;50.460;4.866;2023-06-10T14:36:24;31.68;32.14
75899;DHT22;64576;50.460;4.866;2023-06-10T14:38:49;31.80;32.20
75899;DHT22;64576;50.460;4.866;2023-06-10T14:41:15;31.22;32.38
75899;DHT22;64576;50.460;4.866;2023-06-10T14:43:40;31.29;32.31
75899;DHT22;64576;50.460;4.866;2023-06-10T14:46:06;30.10;34.14
75899;DHT22;64576;50.460;4.866;2023-06-10T14:48:31;30.17;34.13
75899;DHT22;64576;50.460;4.866;2023-06-10T14:50:56;30.53;34.10
75899;DHT22;64576;50.460;4.866;2023-06-10T14:53:22;30.45;33.39
75899;DHT22;64576;50.460;4.866;2023-06-10T14:55:48;30.20;34.20
75899;DHT22;64576;50.460;4.866;2023-06-10T14:58:14;30.16;34.70
75899;DHT22;64576;50.460;4.866;2023-06-10T15:00:39;31.82;32.48
75899;DHT22;64576;50.460;4.866;2023-06-10T15:03:04;33.43;30.68
75899;DHT22;64576;50.460;4.866;2023-06-10T15:05:30;34.27;29.64
75899;DHT22;64576;50.460;4.866;2023-06-10T15:07:55;34.79;29.07
75899;DHT22;64576;50.460;4.866;2023-06-10T15:10:21;36.47;27.98
75899;DHT22;64576;50.460;4.866;2023-06-10T15:12:47;36.36;27.55
75899;DHT22;64576;50.460;4.866;2023-06-10T15:15:12;35.29;28.34
75899;DHT22;64576;50.460;4.866;2023-06-10T15:17:37;34.53;29.77
75899;DHT22;64576;50.460;4.866;2023-06-10T15:20:04;34.10;30.13
75899;DHT22;64576;50.460;4.866;2023-06-10T15:22:30;33.35;30.38
75899;DHT22;64576;50.460;4.866;2023-06-10T15:24:55;32.21;31.57
75899;DHT22;64576;50.460;4.866;2023-06-10T15:27:22;31.85;31.64
75899;DHT22;64576;50.460;4.866;2023-06-10T15:29:48;31.05;32.32
75899;DHT22;64576;50.460;4.866;2023-06-10T15:32:13;30.91;33.04
75899;DHT22;64576;50.460;4.866;2023-06-10T15:34:39;30.98;33.53
75899;DHT22;64576;50.460;4.866;2023-06-10T15:37:07;30.95;33.45